createdAt,value
2023-09-30T00:01:16.303Z,11.56
2023-09-30T00:03:44.981Z,11.47
2023-09-30T00:06:13.687Z,11.47
2023-09-30T00:08:43.756Z,11.54
2023-09-30T00:11:12.296Z,11.59
2023-09-30T00:13:40.740Z,11.62
2023-09-30T00:16:09.334Z,11.62
2023-09-30T00:18:38.016Z,11.60
2023-09-30T00:21:07.804Z,11.57
2023-09-30T00:23:36.349Z,11.55
2023-09-30T00:26:04.936Z,11.52
2023-09-30T00:28:33.530Z,11.50
2023-09-30T00:31:02.139Z,11.52
2023-09-30T00:33:31.248Z,11.55
2023-09-30T00:35:59.990Z,11.57
2023-09-30T00:38:28.503Z,11.58
2023-09-30T00:40:56.934Z,11.61
2023-09-30T00:43:25.472Z,11.62
2023-09-30T00:46:32.912Z,11.62
2023-09-30T00:49:04.594Z,11.59
2023-09-30T00:51:35.306Z,11.59
2023-09-30T00:54:05.516Z,11.62
2023-09-30T00:56:35.710Z,11.66
2023-09-30T00:59:05.642Z,11.67
2023-09-30T01:01:34.424Z,11.65
2023-09-30T01:04:04.660Z,11.64
2023-09-30T01:06:34.213Z,11.62
2023-09-30T01:09:03.155Z,11.61
2023-09-30T01:11:32.388Z,11.61
2023-09-30T01:14:00.900Z,11.63
2023-09-30T01:16:29.419Z,11.65
2023-09-30T01:18:58.052Z,11.64
2023-09-30T01:21:29.602Z,11.60
2023-09-30T01:23:58.881Z,11.55
2023-09-30T01:26:27.579Z,11.58
2023-09-30T01:28:56.692Z,11.60
2023-09-30T01:31:25.194Z,11.57
2023-09-30T01:33:56.551Z,11.51
2023-09-30T01:36:26.362Z,11.50
2023-09-30T01:38:54.830Z,11.48
2023-09-30T01:41:24.194Z,11.45
2023-09-30T01:43:53.309Z,11.45
2023-09-30T01:46:21.822Z,11.44
2023-09-30T01:48:50.413Z,11.44
2023-09-30T01:51:18.864Z,11.53
2023-09-30T01:53:47.427Z,11.53
2023-09-30T01:56:17.187Z,11.54
2023-09-30T01:58:46.151Z,11.49
2023-09-30T02:01:15.326Z,11.42
2023-09-30T02:03:44.115Z,11.39
2023-09-30T02:06:12.714Z,11.39
2023-09-30T02:08:41.208Z,11.36
2023-09-30T02:11:10.480Z,11.29
2023-09-30T02:13:38.896Z,11.23
2023-09-30T02:16:14.007Z,11.18
2023-09-30T02:18:52.436Z,11.14
2023-09-30T02:21:21.198Z,11.15
2023-09-30T02:23:50.578Z,11.23
2023-09-30T02:26:19.434Z,11.29
2023-09-30T02:28:48.469Z,11.28
2023-09-30T02:31:19.643Z,11.23
2023-09-30T02:33:48.817Z,11.18
2023-09-30T02:36:17.522Z,11.14
2023-09-30T02:38:46.137Z,11.08
2023-09-30T02:41:14.712Z,11.02
2023-09-30T02:43:43.236Z,11.00
2023-09-30T02:46:11.821Z,10.96
2023-09-30T02:48:41.851Z,10.94
2023-09-30T02:51:13.992Z,10.91
2023-09-30T02:53:42.597Z,10.84
2023-09-30T02:56:11.847Z,10.80
2023-09-30T02:58:41.935Z,10.79
2023-09-30T03:01:11.821Z,10.79
2023-09-30T03:03:42.419Z,10.79
2023-09-30T03:06:12.223Z,10.78
2023-09-30T03:08:40.843Z,10.81
2023-09-30T03:11:09.638Z,10.82
2023-09-30T03:13:39.079Z,10.78
2023-09-30T03:16:07.964Z,10.76
2023-09-30T03:18:36.446Z,10.77
2023-09-30T03:21:16.065Z,10.79
2023-09-30T03:23:46.026Z,10.85
2023-09-30T03:26:15.173Z,10.85
2023-09-30T03:28:43.868Z,10.77
2023-09-30T03:31:13.079Z,10.76
2023-09-30T03:33:41.736Z,10.78
2023-09-30T03:36:11.507Z,10.76
2023-09-30T03:38:40.993Z,10.76
2023-09-30T03:41:13.031Z,10.81
2023-09-30T03:43:43.291Z,10.88
2023-09-30T03:46:11.861Z,10.88
2023-09-30T03:48:41.485Z,10.89
2023-09-30T03:51:17.751Z,10.91
2023-09-30T03:53:47.532Z,10.87
2023-09-30T03:56:16.129Z,10.81
2023-09-30T03:58:46.698Z,10.78
2023-09-30T04:01:19.511Z,10.77
2023-09-30T04:03:48.570Z,10.74
2023-09-30T04:06:17.485Z,10.77
2023-09-30T04:08:46.123Z,10.78
2023-09-30T04:11:19.800Z,10.72
2023-09-30T04:13:48.376Z,10.63
2023-09-30T04:16:17.389Z,10.65
2023-09-30T04:18:46.225Z,10.68
2023-09-30T04:21:14.763Z,10.66
2023-09-30T04:23:43.608Z,10.63
2023-09-30T04:26:12.075Z,10.61
2023-09-30T04:28:40.647Z,10.63
2023-09-30T04:31:12.507Z,10.65
2023-09-30T04:33:41.796Z,10.68
2023-09-30T04:36:12.216Z,10.68
2023-09-30T04:38:40.862Z,10.71
2023-09-30T04:41:09.455Z,10.73
2023-09-30T04:43:40.781Z,10.69
2023-09-30T04:46:09.767Z,10.70
2023-09-30T04:48:38.405Z,10.68
2023-09-30T04:51:10.918Z,10.68
2023-09-30T04:53:40.342Z,10.64
2023-09-30T04:56:09.149Z,10.66
2023-09-30T04:58:37.739Z,10.69
2023-09-30T05:01:10.653Z,10.67
2023-09-30T05:03:40.136Z,10.58
2023-09-30T05:06:09.729Z,10.49
2023-09-30T05:08:39.261Z,10.44
2023-09-30T05:11:07.894Z,10.47
2023-09-30T05:13:36.609Z,10.48
2023-09-30T05:16:06.454Z,10.56
2023-09-30T05:18:36.540Z,10.58
2023-09-30T05:21:05.217Z,10.52
2023-09-30T05:23:34.421Z,10.46
2023-09-30T05:26:03.248Z,10.40
2023-09-30T05:28:31.900Z,10.48
2023-09-30T05:31:00.892Z,10.47
2023-09-30T05:33:30.079Z,10.54
2023-09-30T05:35:58.826Z,10.59
2023-09-30T05:38:28.229Z,10.66
2023-09-30T05:40:56.940Z,10.70
2023-09-30T05:43:26.360Z,10.74
2023-09-30T05:45:58.369Z,10.79
2023-09-30T05:48:28.318Z,10.85
2023-09-30T05:50:57.177Z,10.93
2023-09-30T05:53:26.898Z,11.00
2023-09-30T05:55:55.493Z,11.07
2023-09-30T05:58:25.574Z,11.10
2023-09-30T06:00:55.264Z,11.18
2023-09-30T06:03:24.424Z,11.30
2023-09-30T06:05:53.070Z,11.39
2023-09-30T06:08:22.642Z,11.44
2023-09-30T06:10:51.195Z,11.50
2023-09-30T06:13:19.899Z,11.50
2023-09-30T06:15:48.905Z,11.53
2023-09-30T06:18:18.280Z,11.56
2023-09-30T06:20:47.147Z,11.56
2023-09-30T06:23:16.222Z,11.61
2023-09-30T06:25:48.200Z,11.67
2023-09-30T06:28:17.080Z,11.72
2023-09-30T06:30:47.696Z,11.81
2023-09-30T06:33:18.755Z,11.87
2023-09-30T06:35:52.299Z,11.93
2023-09-30T06:38:24.322Z,12.03
2023-09-30T06:40:52.881Z,12.11
2023-09-30T06:43:22.105Z,12.20
2023-09-30T06:45:50.651Z,12.27
2023-09-30T06:48:21.534Z,12.39
2023-09-30T06:50:51.984Z,12.61
2023-09-30T06:53:23.467Z,12.89
2023-09-30T06:55:53.159Z,13.12
2023-09-30T06:58:24.951Z,13.46
2023-09-30T07:00:57.520Z,13.68
2023-09-30T07:03:27.450Z,13.75
2023-09-30T07:05:58.133Z,13.96
2023-09-30T07:08:26.724Z,14.19
2023-09-30T07:10:55.204Z,14.44
2023-09-30T07:13:23.877Z,14.70
2023-09-30T07:15:52.656Z,14.99
2023-09-30T07:18:21.212Z,15.19
2023-09-30T07:20:50.252Z,15.43
2023-09-30T07:23:20.709Z,15.61
2023-09-30T07:25:50.470Z,15.83
2023-09-30T07:28:19.205Z,16.13
2023-09-30T07:30:47.796Z,16.36
2023-09-30T07:33:16.405Z,16.45
2023-09-30T07:35:45.210Z,16.59
2023-09-30T07:38:13.906Z,16.70
2023-09-30T07:40:43.218Z,16.88
2023-09-30T07:43:14.508Z,16.91
2023-09-30T07:45:45.494Z,17.01
2023-09-30T07:48:14.300Z,16.97
2023-09-30T07:50:44.192Z,17.07
2023-09-30T07:53:14.040Z,16.73
2023-09-30T07:55:42.828Z,16.70
2023-09-30T07:58:11.352Z,16.74
2023-09-30T08:00:39.963Z,16.90
2023-09-30T08:03:08.944Z,16.75
2023-09-30T08:05:37.608Z,16.91
2023-09-30T08:08:07.784Z,17.10
2023-09-30T08:10:38.332Z,17.16
2023-09-30T08:13:06.945Z,17.38
2023-09-30T08:15:35.545Z,17.67
2023-09-30T08:18:07.986Z,17.74
2023-09-30T08:20:36.601Z,17.79
2023-09-30T08:23:05.787Z,17.81
2023-09-30T08:25:34.314Z,17.98
2023-09-30T08:28:03.071Z,17.94
2023-09-30T08:30:32.497Z,18.02
2023-09-30T08:33:01.796Z,18.21
2023-09-30T08:35:33.608Z,18.40
2023-09-30T08:38:05.013Z,18.58
2023-09-30T08:40:35.257Z,18.85
2023-09-30T08:43:07.634Z,19.19
2023-09-30T08:45:48.818Z,19.18
2023-09-30T08:48:18.956Z,19.42
2023-09-30T08:50:51.221Z,19.54
2023-09-30T08:53:21.800Z,19.61
2023-09-30T08:55:56.673Z,19.82
2023-09-30T08:58:36.112Z,20.04
2023-09-30T09:01:05.407Z,19.82
2023-09-30T09:03:34.189Z,19.64
2023-09-30T09:06:02.873Z,19.84
2023-09-30T09:08:31.571Z,19.94
2023-09-30T09:11:05.011Z,19.96
2023-09-30T09:13:58.303Z,19.93
2023-09-30T09:16:27.848Z,19.27
2023-09-30T09:18:56.928Z,18.73
2023-09-30T09:21:27.924Z,18.76
2023-09-30T09:23:57.005Z,18.77
2023-09-30T09:26:36.971Z,18.80
2023-09-30T09:29:06.873Z,18.58
2023-09-30T09:31:38.417Z,18.26
2023-09-30T09:34:17.057Z,18.28
2023-09-30T09:37:02.923Z,18.41
2023-09-30T09:39:48.789Z,18.20
2023-09-30T09:42:35.182Z,18.29
2023-09-30T09:45:07.935Z,18.46
2023-09-30T09:47:38.460Z,18.46
2023-09-30T09:50:08.638Z,18.33
2023-09-30T09:52:39.855Z,18.17
2023-09-30T09:55:13.042Z,18.34
2023-09-30T09:57:43.577Z,18.33
2023-09-30T10:00:20.385Z,18.42
2023-09-30T10:02:50.288Z,18.49
2023-09-30T10:05:23.200Z,18.60
2023-09-30T10:08:01.492Z,18.74
2023-09-30T10:10:31.180Z,18.85
2023-09-30T10:12:59.816Z,18.57
2023-09-30T10:15:28.503Z,18.60
2023-09-30T10:18:06.760Z,18.63
2023-09-30T10:20:39.144Z,18.57
2023-09-30T10:23:27.908Z,18.55
2023-09-30T10:26:19.834Z,18.41
2023-09-30T10:28:52.775Z,18.39
2023-09-30T10:31:28.728Z,18.64
2023-09-30T10:34:03.393Z,18.84
2023-09-30T10:36:41.140Z,18.57
2023-09-30T10:39:16.817Z,18.13
2023-09-30T10:41:49.144Z,18.01
2023-09-30T10:44:30.818Z,17.90
2023-09-30T10:47:22.747Z,17.91
2023-09-30T10:49:51.624Z,18.01
2023-09-30T10:52:26.430Z,18.01
2023-09-30T10:55:08.976Z,17.99
2023-09-30T10:57:39.681Z,17.94
2023-09-30T11:00:18.106Z,17.85
2023-09-30T11:03:00.571Z,17.99
2023-09-30T11:05:59.293Z,17.98
2023-09-30T11:08:36.448Z,17.90
2023-09-30T11:11:08.974Z,17.90
2023-09-30T11:13:41.853Z,17.77
2023-09-30T11:16:15.173Z,17.70
2023-09-30T11:18:47.628Z,17.78
2023-09-30T11:21:19.939Z,17.81
2023-09-30T11:23:49.608Z,17.74
2023-09-30T11:26:18.259Z,17.58
2023-09-30T11:28:47.645Z,17.44
2023-09-30T11:31:17.873Z,17.39
2023-09-30T11:33:58.391Z,17.44
2023-09-30T11:36:26.957Z,17.46
2023-09-30T11:38:55.671Z,17.35
2023-09-30T11:41:24.787Z,17.23
2023-09-30T11:44:14.141Z,17.11
2023-09-30T11:47:06.752Z,17.17
2023-09-30T11:49:50.060Z,17.36
2023-09-30T11:52:18.483Z,17.47
2023-09-30T11:54:48.566Z,17.54
2023-09-30T11:57:20.162Z,17.59
2023-09-30T11:59:49.987Z,17.61
2023-09-30T12:02:19.179Z,17.62
2023-09-30T12:04:49.274Z,17.66
2023-09-30T12:07:18.406Z,17.79
2023-09-30T12:09:47.069Z,17.97
2023-09-30T12:12:16.276Z,18.20
2023-09-30T12:14:45.169Z,18.43
2023-09-30T12:17:16.103Z,18.60
2023-09-30T12:19:44.750Z,18.81
2023-09-30T12:22:13.469Z,18.80
2023-09-30T12:24:43.025Z,18.88
2023-09-30T12:27:12.092Z,18.97
2023-09-30T12:29:42.879Z,18.90
2023-09-30T12:32:11.911Z,18.88
2023-09-30T12:34:41.666Z,18.75
2023-09-30T12:37:10.363Z,18.56
2023-09-30T12:39:39.264Z,18.57
2023-09-30T12:42:11.455Z,18.69
2023-09-30T12:44:40.568Z,18.70
2023-09-30T12:47:09.099Z,18.63
2023-09-30T12:49:38.783Z,18.57
2023-09-30T12:52:07.519Z,18.54
2023-09-30T12:54:36.329Z,18.52
2023-09-30T12:57:05.215Z,18.46
2023-09-30T12:59:36.007Z,18.43
2023-09-30T13:02:08.609Z,18.41
2023-09-30T13:04:39.564Z,18.53
2023-09-30T13:07:11.350Z,18.55
2023-09-30T13:09:41.643Z,18.58
2023-09-30T13:12:14.015Z,18.64
2023-09-30T13:14:48.581Z,18.66
2023-09-30T13:17:18.136Z,18.79
2023-09-30T13:19:46.701Z,18.89
2023-09-30T13:22:18.537Z,18.90
2023-09-30T13:24:48.700Z,18.93
2023-09-30T13:27:19.992Z,18.96
2023-09-30T13:29:48.648Z,19.08
2023-09-30T13:32:20.501Z,19.23
2023-09-30T13:34:50.447Z,19.37
2023-09-30T13:37:19.861Z,19.45
2023-09-30T13:39:48.842Z,19.38
2023-09-30T13:42:19.612Z,19.31
2023-09-30T13:44:49.797Z,19.33
2023-09-30T13:47:19.123Z,19.22
2023-09-30T13:49:48.179Z,19.23
2023-09-30T13:52:16.861Z,19.18
2023-09-30T13:54:45.670Z,18.97
2023-09-30T13:57:15.996Z,18.85
2023-09-30T13:59:44.643Z,18.84
2023-09-30T14:02:13.175Z,18.82
2023-09-30T14:04:42.503Z,18.70
2023-09-30T14:07:11.108Z,18.75
2023-09-30T14:09:39.819Z,18.87
2023-09-30T14:12:09.374Z,19.01
2023-09-30T14:14:38.305Z,19.09
2023-09-30T14:17:11.931Z,19.11
2023-09-30T14:19:40.894Z,19.14
2023-09-30T14:22:10.876Z,19.09
2023-09-30T14:24:39.782Z,19.01
2023-09-30T14:27:09.181Z,19.14
2023-09-30T14:29:37.699Z,19.07
2023-09-30T14:32:06.421Z,19.05
2023-09-30T14:34:34.872Z,19.07
2023-09-30T14:37:03.476Z,18.99
2023-09-30T14:39:32.885Z,18.90
2023-09-30T14:42:02.023Z,18.85
2023-09-30T14:44:30.567Z,18.90
2023-09-30T14:46:59.335Z,18.96
2023-09-30T14:49:28.517Z,18.97
2023-09-30T14:51:59.790Z,18.91
2023-09-30T14:54:28.828Z,18.88
2023-09-30T14:56:57.848Z,18.79
2023-09-30T14:59:26.983Z,18.67
2023-09-30T15:01:56.130Z,18.66
2023-09-30T15:04:25.089Z,19.12
2023-09-30T15:06:55.051Z,19.77
2023-09-30T15:09:24.517Z,20.12
2023-09-30T15:11:53.029Z,20.66
2023-09-30T15:14:22.498Z,20.76
2023-09-30T15:16:51.083Z,20.49
2023-09-30T15:19:19.824Z,19.94
2023-09-30T15:21:48.377Z,19.58
2023-09-30T15:24:17.007Z,19.34
2023-09-30T15:26:46.099Z,19.17
2023-09-30T15:29:14.589Z,19.05
2023-09-30T15:31:43.931Z,18.95
2023-09-30T15:34:13.460Z,18.86
2023-09-30T15:36:42.867Z,18.66
2023-09-30T15:39:11.931Z,18.53
2023-09-30T15:41:40.437Z,18.36
2023-09-30T15:44:08.960Z,18.27
2023-09-30T15:46:38.124Z,18.15
2023-09-30T15:49:06.952Z,18.02
2023-09-30T15:51:35.515Z,17.94
2023-09-30T15:54:04.081Z,17.81
2023-09-30T15:56:42.181Z,17.68
2023-09-30T15:59:21.162Z,17.64
2023-09-30T16:01:50.898Z,17.63
2023-09-30T16:04:19.647Z,17.60
2023-09-30T16:06:48.389Z,17.59
2023-09-30T16:09:17.732Z,17.56
2023-09-30T16:11:46.333Z,17.54
2023-09-30T16:14:17.298Z,17.56
2023-09-30T16:16:46.319Z,17.52
2023-09-30T16:19:14.863Z,17.47
2023-09-30T16:21:44.166Z,17.41
2023-09-30T16:24:12.663Z,17.32
2023-09-30T16:26:42.106Z,17.19
2023-09-30T16:29:11.459Z,17.06
2023-09-30T16:31:40.699Z,16.93
2023-09-30T16:34:09.519Z,16.81
2023-09-30T16:36:38.914Z,16.70
2023-09-30T16:39:09.875Z,16.58
2023-09-30T16:41:39.785Z,16.42
2023-09-30T16:44:08.752Z,16.27
2023-09-30T16:46:37.671Z,16.13
2023-09-30T16:49:06.553Z,16.01
2023-09-30T16:51:35.870Z,15.86
2023-09-30T16:54:04.815Z,15.73
2023-09-30T16:56:33.343Z,15.59
2023-09-30T16:59:03.306Z,15.45
2023-09-30T17:01:32.441Z,15.31
2023-09-30T17:04:02.083Z,15.21
2023-09-30T17:06:30.860Z,15.08
2023-09-30T17:08:59.354Z,14.95
2023-09-30T17:11:27.933Z,14.82
2023-09-30T17:13:56.737Z,14.73
2023-09-30T17:16:25.629Z,14.59
2023-09-30T17:18:54.420Z,14.49
2023-09-30T17:21:23.021Z,14.43
2023-09-30T17:23:51.765Z,14.36
2023-09-30T17:26:20.883Z,14.29
2023-09-30T17:28:50.883Z,14.23
2023-09-30T17:31:19.752Z,14.15
2023-09-30T17:33:48.318Z,14.07
2023-09-30T17:36:16.936Z,13.96
2023-09-30T17:38:45.472Z,13.90
2023-09-30T17:41:13.946Z,13.83
2023-09-30T17:43:43.968Z,13.77
2023-09-30T17:46:22.132Z,13.73
2023-09-30T17:48:50.911Z,13.69
2023-09-30T17:51:21.594Z,13.66
2023-09-30T17:53:54.666Z,13.59
2023-09-30T17:56:24.507Z,13.56
2023-09-30T17:58:54.486Z,13.50
2023-09-30T18:01:24.520Z,13.44
2023-09-30T18:03:55.434Z,13.32
2023-09-30T18:06:27.626Z,13.25
2023-09-30T18:08:57.530Z,13.25
2023-09-30T18:11:26.082Z,13.26
2023-09-30T18:13:58.115Z,13.25
2023-09-30T18:16:31.470Z,13.23
2023-09-30T18:19:01.144Z,13.18
2023-09-30T18:21:29.865Z,13.12
2023-09-30T18:23:58.501Z,13.09
2023-09-30T18:26:27.243Z,13.03
2023-09-30T18:28:57.024Z,12.96
2023-09-30T18:31:27.539Z,13.02
2023-09-30T18:33:57.391Z,13.05
2023-09-30T18:36:29.677Z,13.13
2023-09-30T18:39:22.754Z,13.18
2023-09-30T18:42:25.134Z,13.18
2023-09-30T18:45:00.340Z,13.16
2023-09-30T18:47:56.974Z,13.15
2023-09-30T18:50:27.833Z,13.14
2023-09-30T18:52:57.171Z,13.09
2023-09-30T18:55:25.770Z,13.03
2023-09-30T18:57:54.386Z,12.99
2023-09-30T19:00:23.143Z,12.94
2023-09-30T19:02:51.739Z,12.89
2023-09-30T19:05:20.942Z,12.81
2023-09-30T19:07:49.498Z,12.77
2023-09-30T19:10:18.124Z,12.76
2023-09-30T19:12:46.838Z,12.76
2023-09-30T19:15:15.470Z,12.78
2023-09-30T19:17:44.334Z,12.82
2023-09-30T19:20:16.673Z,12.86
2023-09-30T19:22:45.339Z,12.90
2023-09-30T19:25:14.896Z,12.90
2023-09-30T19:27:43.627Z,12.92
2023-09-30T19:30:14.321Z,12.93
2023-09-30T19:32:43.019Z,12.93
2023-09-30T19:35:12.028Z,12.96
2023-09-30T19:37:40.840Z,12.98
2023-09-30T19:40:10.236Z,12.98
2023-09-30T19:42:41.344Z,12.98
2023-09-30T19:45:10.786Z,12.94
2023-09-30T19:47:41.019Z,12.88
2023-09-30T19:50:10.488Z,12.80
2023-09-30T19:52:39.045Z,12.74
2023-09-30T19:55:09.478Z,12.75
2023-09-30T19:57:38.308Z,12.77
2023-09-30T20:00:10.656Z,12.82
2023-09-30T20:02:39.345Z,12.87
2023-09-30T20:05:10.624Z,12.92
2023-09-30T20:07:40.055Z,12.96
2023-09-30T20:10:10.889Z,13.00
2023-09-30T20:12:39.724Z,13.03
2023-09-30T20:15:10.538Z,13.04
2023-09-30T20:17:39.125Z,13.09
2023-09-30T20:20:09.346Z,13.13
2023-09-30T20:22:37.946Z,13.17
2023-09-30T20:25:07.354Z,13.20
2023-09-30T20:27:36.136Z,13.26
2023-09-30T20:30:05.871Z,13.32
2023-09-30T20:32:38.876Z,13.38
2023-09-30T20:35:10.725Z,13.44
2023-09-30T20:37:39.901Z,13.49
2023-09-30T20:40:12.010Z,13.52
2023-09-30T20:42:41.528Z,13.54
2023-09-30T20:45:10.954Z,13.56
2023-09-30T20:47:44.579Z,13.58
2023-09-30T20:50:20.201Z,13.55
2023-09-30T20:52:59.619Z,13.47
2023-09-30T20:55:38.754Z,13.36
2023-09-30T20:58:08.499Z,13.26
2023-09-30T21:00:37.092Z,13.15
2023-09-30T21:03:06.555Z,13.03
2023-09-30T21:05:39.798Z,12.90
2023-09-30T21:08:09.067Z,12.77
2023-09-30T21:10:39.736Z,12.65
2023-09-30T21:13:08.294Z,12.58
2023-09-30T21:15:36.867Z,12.49
2023-09-30T21:18:06.338Z,12.41
2023-09-30T21:20:35.300Z,12.34
2023-09-30T21:23:04.821Z,12.27
2023-09-30T21:25:36.951Z,12.20
2023-09-30T21:28:06.103Z,12.13
2023-09-30T21:30:37.194Z,12.12
2023-09-30T21:33:09.389Z,12.06
2023-09-30T21:35:38.234Z,12.06
2023-09-30T21:38:07.473Z,12.11
2023-09-30T21:40:35.941Z,12.11
2023-09-30T21:43:05.197Z,12.16
2023-09-30T21:45:34.496Z,12.25
2023-09-30T21:48:03.019Z,12.35
2023-09-30T21:50:31.649Z,12.45
2023-09-30T21:53:02.256Z,12.52
2023-09-30T21:55:31.688Z,12.59
2023-09-30T21:58:01.119Z,12.65
2023-09-30T22:00:39.654Z,12.69
2023-09-30T22:03:10.980Z,12.71
2023-09-30T22:05:43.221Z,12.68
2023-09-30T22:08:11.743Z,12.58
2023-09-30T22:10:42.175Z,12.44
2023-09-30T22:13:15.110Z,12.33
2023-09-30T22:15:44.495Z,12.27
2023-09-30T22:18:13.266Z,12.23
2023-09-30T22:20:42.872Z,12.15
2023-09-30T22:23:12.128Z,12.08
2023-09-30T22:25:41.647Z,12.03
2023-09-30T22:28:10.908Z,12.01
2023-09-30T22:30:39.992Z,12.03
2023-09-30T22:33:08.584Z,12.10
2023-09-30T22:35:38.020Z,12.16
2023-09-30T22:38:06.667Z,12.22
2023-09-30T22:40:35.356Z,12.22
2023-09-30T22:43:06.922Z,12.16
2023-09-30T22:45:39.047Z,12.07
2023-09-30T22:48:08.531Z,12.02
2023-09-30T22:50:38.015Z,11.96
2023-09-30T22:53:07.041Z,11.95
2023-09-30T22:55:36.088Z,11.93
2023-09-30T22:58:05.764Z,11.95
2023-09-30T23:00:35.293Z,11.96
2023-09-30T23:03:04.305Z,11.94
2023-09-30T23:05:33.550Z,11.92
2023-09-30T23:08:02.645Z,11.91
2023-09-30T23:10:31.240Z,11.93
2023-09-30T23:13:00.620Z,11.97
2023-09-30T23:15:29.877Z,12.01
2023-09-30T23:17:58.582Z,12.03
2023-09-30T23:20:28.371Z,12.08
2023-09-30T23:22:56.925Z,12.10
2023-09-30T23:25:28.497Z,12.14
2023-09-30T23:28:03.234Z,12.17
2023-09-30T23:30:31.924Z,12.16
2023-09-30T23:33:04.121Z,12.17
2023-09-30T23:35:36.639Z,12.10
2023-09-30T23:38:06.369Z,12.03
2023-09-30T23:40:35.518Z,12.00
2023-09-30T23:43:04.684Z,11.92
2023-09-30T23:45:36.451Z,11.87
2023-09-30T23:48:07.542Z,11.81
2023-09-30T23:50:37.882Z,11.74
2023-09-30T23:53:06.758Z,11.69
2023-09-30T23:55:37.933Z,11.65
2023-09-30T23:58:11.642Z,11.63
